Time;durP1;ratioP1;P1;durP2;ratioP2;P2;SDS_P1;SDS_P2;PMS_P1;PMS_P2;Temp;Humidity;BMP_temperature;BMP_pressure;BME280_temperature;BME280_humidity;BME280_pressure;Samples;Min_cycle;Max_cycle;Signal;HPM_P1;HPM_P2
2023/07/26 00:04:28;;;;;;;4.85;2.40;;;18.30;99.90;;;;;;10069416;28;20120;-68
2023/07/26 00:09:19;;;;;;;3.70;2.65;;;18.30;99.90;;;;;;10066900;28;20464;-68
2023/07/26 00:14:09;;;;;;;3.97;1.88;;;18.40;99.90;;;;;;10064264;28;20037;-68
2023/07/26 00:19:01;;;;;;;4.28;2.20;;;18.40;99.90;;;;;;10055565;28;20407;-69
2023/07/26 00:23:51;;;;;;;2.47;1.92;;;18.50;99.90;;;;;;10060047;28;20040;-68
2023/07/26 00:28:42;;;;;;;3.92;2.15;;;18.50;99.90;;;;;;10059736;28;20024;-70
2023/07/26 00:33:32;;;;;;;3.40;2.72;;;18.40;99.90;;;;;;10059754;28;20418;-68
2023/07/26 00:38:23;;;;;;;2.50;1.88;;;18.30;99.90;;;;;;10059954;28;20543;-68
2023/07/26 00:43:14;;;;;;;3.40;2.42;;;18.20;99.90;;;;;;10058770;28;20502;-68
2023/07/26 00:48:05;;;;;;;4.20;2.55;;;18.30;99.90;;;;;;10059397;28;20467;-68
2023/07/26 00:52:56;;;;;;;3.13;2.65;;;18.30;99.90;;;;;;10056080;28;20045;-67
2023/07/26 00:57:47;;;;;;;4.28;2.70;;;18.20;99.90;;;;;;10060461;28;20030;-67
2023/07/26 01:02:38;;;;;;;3.00;2.10;;;18.20;99.90;;;;;;10058941;28;20064;-67
2023/07/26 01:07:43;;;;;;;2.88;2.22;;;18.10;99.90;;;;;;10060073;28;20021;-67
2023/07/26 01:12:42;;;;;;;4.03;2.40;;;18.10;99.90;;;;;;10065623;28;20060;-67
2023/07/26 01:17:33;;;;;;;2.97;2.60;;;18.20;99.90;;;;;;10059542;28;20513;-69
2023/07/26 01:22:23;;;;;;;3.47;2.80;;;18.10;99.90;;;;;;10058413;28;20025;-68
2023/07/26 01:27:14;;;;;;;2.85;2.50;;;18.00;99.90;;;;;;10057221;28;20022;-68
2023/07/26 01:32:07;;;;;;;3.83;2.58;;;17.90;99.90;;;;;;10057377;28;20112;-68
2023/07/26 01:36:59;;;;;;;5.43;3.13;;;18.00;99.90;;;;;;10062538;28;20144;-68
2023/07/26 01:41:51;;;;;;;4.88;3.58;;;17.80;99.90;;;;;;10056609;28;20579;-67
2023/07/26 01:46:42;;;;;;;2.20;2.00;;;18.00;99.90;;;;;;10056849;28;20061;-69
2023/07/26 01:51:32;;;;;;;4.28;2.80;;;18.00;99.90;;;;;;10053868;28;20060;-66
2023/07/26 01:56:23;;;;;;;3.17;2.78;;;17.90;99.90;;;;;;10054209;28;20034;-70
2023/07/26 02:01:14;;;;;;;2.90;2.08;;;18.00;99.90;;;;;;10057112;28;20025;-67
2023/07/26 02:06:04;;;;;;;4.68;2.50;;;18.00;99.90;;;;;;10056445;28;20060;-67
2023/07/26 02:10:55;;;;;;;3.42;2.92;;;18.00;99.90;;;;;;10068751;28;20395;-67
2023/07/26 02:15:46;;;;;;;3.25;2.30;;;18.00;99.90;;;;;;10057242;28;20083;-67
2023/07/26 02:20:37;;;;;;;3.08;2.42;;;17.90;99.90;;;;;;10056118;28;20026;-66
2023/07/26 02:25:28;;;;;;;1.98;1.88;;;17.80;99.90;;;;;;10056216;28;20029;-69
2023/07/26 02:30:19;;;;;;;3.95;1.98;;;17.90;99.90;;;;;;10063685;28;20030;-67
2023/07/26 02:35:09;;;;;;;2.65;2.25;;;17.80;99.90;;;;;;10063587;28;20049;-67
2023/07/26 02:40:00;;;;;;;3.70;2.42;;;17.80;99.90;;;;;;10064480;28;20025;-67
2023/07/26 02:44:52;;;;;;;3.75;2.45;;;17.90;99.90;;;;;;10063683;28;20033;-68
2023/07/26 02:49:43;;;;;;;2.95;2.03;;;17.90;99.90;;;;;;10068253;28;20427;-67
2023/07/26 02:54:34;;;;;;;3.58;2.20;;;17.80;99.90;;;;;;10063290;28;20053;-67
2023/07/26 02:59:24;;;;;;;4.38;3.13;;;17.70;99.90;;;;;;10063380;28;20499;-68
2023/07/26 03:04:15;;;;;;;4.85;3.10;;;17.50;99.90;;;;;;10065537;28;20026;-66
2023/07/26 03:09:05;;;;;;;4.18;2.70;;;17.60;99.90;;;;;;10059388;28;20086;-67
2023/07/26 03:13:56;;;;;;;3.08;2.72;;;17.70;99.90;;;;;;10062200;28;20040;-72
2023/07/26 03:18:47;;;;;;;2.47;2.17;;;17.80;99.90;;;;;;10062577;28;20027;-67
2023/07/26 03:23:37;;;;;;;2.35;2.15;;;17.70;99.90;;;;;;10062625;28;20041;-68
2023/07/26 03:28:28;;;;;;;2.65;2.45;;;17.70;99.90;;;;;;10065827;28;20330;-67
2023/07/26 03:33:19;;;;;;;2.70;2.20;;;17.70;99.90;;;;;;10065750;28;20033;-67
2023/07/26 03:38:09;;;;;;;4.10;2.35;;;17.70;99.90;;;;;;10061887;28;20022;-68
2023/07/26 03:43:00;;;;;;;2.42;1.60;;;17.60;99.90;;;;;;10066385;28;20029;-67
2023/07/26 03:47:51;;;;;;;2.67;2.20;;;17.50;99.90;;;;;;10061462;28;20045;-67
2023/07/26 03:52:41;;;;;;;4.15;2.28;;;17.50;99.90;;;;;;10064570;28;20277;-68
2023/07/26 03:57:32;;;;;;;3.25;2.28;;;17.30;99.90;;;;;;10061190;28;20104;-68
2023/07/26 04:02:22;;;;;;;5.93;2.35;;;17.40;99.90;;;;;;10060776;28;20032;-68
2023/07/26 04:07:13;;;;;;;2.45;2.05;;;17.50;99.90;;;;;;10062527;28;20032;-66
2023/07/26 04:12:05;;;;;;;3.30;2.17;;;17.40;99.90;;;;;;10071850;28;20072;-66
2023/07/26 04:16:56;;;;;;;2.60;2.08;;;17.50;99.90;;;;;;10060640;28;20039;-66
2023/07/26 04:21:46;;;;;;;4.47;2.45;;;17.50;99.90;;;;;;10060121;28;20025;-67
2023/07/26 04:26:37;;;;;;;3.80;2.90;;;17.50;99.90;;;;;;10063299;28;20096;-67
2023/07/26 04:31:27;;;;;;;5.22;2.28;;;17.50;99.90;;;;;;10059929;28;20033;-68
2023/07/26 04:36:18;;;;;;;4.63;2.25;;;17.60;99.90;;;;;;10060316;28;20045;-67
2023/07/26 04:41:09;;;;;;;2.13;1.90;;;17.40;99.90;;;;;;10060167;28;20407;-67
2023/07/26 04:45:59;;;;;;;1.88;1.73;;;17.40;99.90;;;;;;10061435;28;20026;-67
2023/07/26 04:50:50;;;;;;;2.95;2.13;;;17.50;99.90;;;;;;10059271;28;20049;-72
2023/07/26 04:55:45;;;;;;;2.28;2.03;;;17.50;99.90;;;;;;10061844;28;20045;-67
2023/07/26 05:00:37;;;;;;;;;;;17.50;99.90;;;;;;10059028;28;20029;-66
2023/07/26 05:05:28;;;;;;;5.43;2.10;;;17.40;99.90;;;;;;10057259;28;20350;-66
2023/07/26 05:10:19;;;;;;;3.13;2.35;;;17.50;99.90;;;;;;10061714;28;20116;-67
2023/07/26 05:15:10;;;;;;;2.55;2.30;;;17.50;99.90;;;;;;10058777;28;20049;-67
2023/07/26 05:20:00;;;;;;;3.08;1.92;;;17.30;99.90;;;;;;10058263;28;20029;-66
2023/07/26 05:24:51;;;;;;;2.60;2.10;;;17.20;99.90;;;;;;10058320;28;20029;-68
2023/07/26 05:29:42;;;;;;;5.28;2.85;;;17.10;99.90;;;;;;10057840;28;20112;-65
2023/07/26 05:34:33;;;;;;;4.20;2.20;;;17.10;99.90;;;;;;10057216;28;20116;-66
2023/07/26 05:39:23;;;;;;;3.72;2.40;;;17.10;99.90;;;;;;10059717;28;20029;-66
2023/07/26 05:44:14;;;;;;;3.28;2.00;;;17.30;99.90;;;;;;10057037;28;20037;-66
2023/07/26 05:49:04;;;;;;;3.20;2.65;;;17.30;99.90;;;;;;10055721;28;20443;-66
2023/07/26 05:53:55;;;;;;;9.95;3.15;;;17.20;99.90;;;;;;10058405;28;20057;-66
2023/07/26 05:58:46;;;;;;;2.50;2.30;;;17.30;99.90;;;;;;10064224;28;20030;-67
2023/07/26 06:03:36;;;;;;;2.40;2.03;;;17.40;99.90;;;;;;10056163;28;20036;-67
2023/07/26 06:08:27;;;;;;;4.28;2.20;;;17.40;99.90;;;;;;10061082;28;20017;-67
2023/07/26 06:13:17;;;;;;;2.65;1.95;;;17.40;99.90;;;;;;10060683;28;20037;-66
2023/07/26 06:18:08;;;;;;;4.15;2.28;;;17.30;99.90;;;;;;10056864;28;20030;-66
2023/07/26 06:22:58;;;;;;;7.93;2.70;;;17.40;99.90;;;;;;10056411;28;20572;-66
2023/07/26 06:27:49;;;;;;;8.43;2.20;;;17.30;99.90;;;;;;10056076;28;20060;-67
2023/07/26 06:32:40;;;;;;;3.15;2.13;;;17.30;99.90;;;;;;10060217;28;20041;-69
2023/07/26 06:37:31;;;;;;;9.90;3.33;;;17.30;99.90;;;;;;10057249;28;20029;-73
2023/07/26 06:42:22;;;;;;;2.47;1.80;;;17.40;99.90;;;;;;10056843;28;20025;-72
2023/07/26 06:47:12;;;;;;;3.05;1.90;;;17.50;99.90;;;;;;10058414;28;20076;-73
2023/07/26 06:52:04;;;;;;;3.80;2.13;;;17.40;99.90;;;;;;10057460;28;20042;-70
2023/07/26 06:56:55;;;;;;;3.28;2.38;;;17.40;99.90;;;;;;10072098;28;20049;-70
2023/07/26 07:01:46;;;;;;;4.68;1.88;;;17.50;99.90;;;;;;10058225;28;20184;-69
2023/07/26 07:06:37;;;;;;;2.97;2.33;;;17.60;99.90;;;;;;10060114;28;20041;-69
2023/07/26 07:11:28;;;;;;;4.47;2.58;;;17.60;99.90;;;;;;10064373;28;20033;-69
2023/07/26 07:16:18;;;;;;;3.67;2.60;;;17.70;99.90;;;;;;10058328;28;20041;-70
2023/07/26 07:21:09;;;;;;;4.65;2.65;;;17.70;99.90;;;;;;10055683;28;20034;-69
2023/07/26 07:25:59;;;;;;;2.83;2.22;;;17.80;99.90;;;;;;10060624;28;20025;-69
2023/07/26 07:30:51;;;;;;;3.88;2.42;;;17.80;99.90;;;;;;10062300;28;20808;-67
2023/07/26 07:35:41;;;;;;;3.67;1.90;;;17.70;99.90;;;;;;10062200;28;20052;-68
2023/07/26 07:40:32;;;;;;;2.55;1.95;;;17.80;99.90;;;;;;10062006;28;20029;-69
2023/07/26 07:45:22;;;;;;;3.58;2.17;;;17.70;99.90;;;;;;10060893;28;20663;-68
2023/07/26 07:50:13;;;;;;;2.22;1.55;;;17.80;99.90;;;;;;10061601;28;20030;-67
2023/07/26 07:55:05;;;;;;;4.25;1.58;;;17.80;99.90;;;;;;10059808;28;20050;-67
2023/07/26 07:59:55;;;;;;;4.38;1.90;;;17.80;99.90;;;;;;10059694;28;20018;-68
2023/07/26 08:04:46;;;;;;;2.35;1.65;;;17.80;99.90;;;;;;10060531;28;20031;-67
2023/07/26 08:09:37;;;;;;;3.28;2.33;;;17.80;99.90;;;;;;10072510;28;20457;-68
2023/07/26 08:14:27;;;;;;;2.45;2.10;;;17.90;99.90;;;;;;10060711;28;20041;-69
2023/07/26 08:19:18;;;;;;;4.18;2.70;;;17.90;99.90;;;;;;10060309;28;20034;-67
2023/07/26 08:24:08;;;;;;;3.30;1.50;;;17.60;99.90;;;;;;10067194;28;20033;-66
2023/07/26 08:28:59;;;;;;;3.20;1.38;;;16.50;99.90;;;;;;10061033;28;20033;-66
2023/07/26 08:33:50;;;;;;;3.17;1.95;;;16.00;99.90;;;;;;10059834;28;20044;-66
2023/07/26 08:38:40;;;;;;;2.65;2.33;;;16.00;99.90;;;;;;10059987;28;20467;-66
2023/07/26 08:43:33;;;;;;;3.00;2.20;;;16.10;99.90;;;;;;10058912;28;20495;-66
2023/07/26 08:48:24;;;;;;;2.42;2.03;;;16.10;99.90;;;;;;10059072;28;20029;-67
2023/07/26 08:53:15;;;;;;;2.67;1.90;;;16.20;99.90;;;;;;10057994;28;20144;-67
2023/07/26 08:58:06;;;;;;;3.70;1.92;;;16.20;99.90;;;;;;10061532;28;20442;-66
2023/07/26 09:02:59;;;;;;;2.28;2.08;;;16.20;99.90;;;;;;10056644;28;20042;-67
2023/07/26 09:07:51;;;;;;;2.97;2.13;;;16.20;99.90;;;;;;10056200;28;20450;-67
2023/07/26 09:12:42;;;;;;;5.80;2.30;;;16.30;99.90;;;;;;10053002;28;20140;-67
2023/07/26 09:17:41;;;;;;;4.35;2.42;;;16.40;99.90;;;;;;10055260;28;20148;-67
2023/07/26 09:22:31;;;;;;;2.45;2.22;;;16.30;99.90;;;;;;10054364;28;20037;-65
2023/07/26 09:27:22;;;;;;;3.67;3.05;;;16.50;99.90;;;;;;10055917;28;20021;-66
2023/07/26 09:32:13;;;;;;;3.85;3.20;;;16.60;99.90;;;;;;10052550;28;20032;-66
2023/07/26 09:37:04;;;;;;;3.25;2.30;;;16.70;99.90;;;;;;10057331;28;20036;-66
2023/07/26 09:42:08;;;;;;;4.80;2.72;;;16.70;99.90;;;;;;10052593;28;20033;-67
2023/07/26 09:46:59;;;;;;;3.08;2.65;;;16.90;99.90;;;;;;10052900;28;20036;-66
2023/07/26 09:51:54;;;;;;;5.05;2.38;;;16.90;99.90;;;;;;10055190;28;20045;-67
2023/07/26 09:56:46;;;;;;;3.40;2.38;;;17.00;99.90;;;;;;10053892;28;20112;-68
2023/07/26 10:01:42;;;;;;;2.78;1.95;;;17.30;99.90;;;;;;10052746;28;20045;-67
2023/07/26 10:06:35;;;;;;;2.42;2.05;;;17.10;99.90;;;;;;10056210;28;20053;-67
2023/07/26 10:11:27;;;;;;;2.10;1.90;;;17.20;99.90;;;;;;10053914;28;20097;-67
2023/07/26 10:16:18;;;;;;;2.47;1.90;;;17.10;99.90;;;;;;10056138;28;20040;-66
2023/07/26 10:21:11;;;;;;;3.83;2.25;;;17.20;99.90;;;;;;10055881;28;20017;-67
2023/07/26 10:26:04;;;;;;;4.65;2.00;;;17.30;99.90;;;;;;10056991;28;20041;-69
2023/07/26 10:30:56;;;;;;;9.27;3.10;;;17.30;99.90;;;;;;10059547;28;20392;-69
2023/07/26 10:35:47;;;;;;;1.77;1.60;;;17.50;99.90;;;;;;10056072;28;20041;-67
2023/07/26 10:40:39;;;;;;;2.10;1.85;;;17.60;99.90;;;;;;10055504;28;20476;-68
2023/07/26 10:45:44;;;;;;;2.55;2.03;;;17.60;99.90;;;;;;10062330;28;20438;-68
2023/07/26 10:50:34;;;;;;;2.40;1.77;;;17.70;99.90;;;;;;10061380;28;20068;-67
2023/07/26 10:55:27;;;;;;;3.60;2.45;;;17.80;99.90;;;;;;10055874;28;20501;-68
2023/07/26 11:00:22;;;;;;;4.28;1.83;;;17.80;99.90;;;;;;10062216;28;20084;-68
2023/07/26 11:05:21;;;;;;;4.57;1.80;;;17.80;99.90;;;;;;10067351;28;20608;-68
2023/07/26 11:10:24;;;;;;;1.52;1.42;;;17.90;99.90;;;;;;10065325;28;20251;-68
2023/07/26 11:15:15;;;;;;;2.80;1.80;;;18.00;99.90;;;;;;10056965;28;20037;-68
2023/07/26 11:20:06;;;;;;;2.75;1.70;;;18.10;99.90;;;;;;10062114;28;20026;-67
2023/07/26 11:25:02;;;;;;;2.33;1.60;;;18.20;99.90;;;;;;10060387;28;20124;-67
2023/07/26 11:29:53;;;;;;;3.65;2.35;;;18.40;99.90;;;;;;10070102;28;20368;-67
2023/07/26 11:34:54;;;;;;;3.50;1.88;;;18.60;99.90;;;;;;10064463;28;20053;-67
2023/07/26 11:39:44;;;;;;;2.63;1.80;;;18.70;99.90;;;;;;10059166;28;20029;-68
2023/07/26 11:44:35;;;;;;;3.90;1.88;;;18.60;99.90;;;;;;10064948;28;20033;-68
2023/07/26 11:49:26;;;;;;;2.60;1.92;;;18.60;99.90;;;;;;10059390;28;20021;-67
2023/07/26 11:54:17;;;;;;;2.70;1.55;;;18.60;99.90;;;;;;10057920;28;20049;-68
2023/07/26 11:59:10;;;;;;;2.58;1.70;;;18.50;99.90;;;;;;10063163;28;20034;-69
2023/07/26 12:04:00;;;;;;;2.33;1.75;;;18.70;99.90;;;;;;10060209;28;20037;-67
2023/07/26 12:08:51;;;;;;;2.85;1.48;;;18.70;99.90;;;;;;10059703;28;20739;-67
2023/07/26 12:13:42;;;;;;;2.13;1.75;;;18.90;99.90;;;;;;10057690;28;20415;-68
2023/07/26 12:18:32;;;;;;;3.05;2.03;;;18.90;99.90;;;;;;10060931;28;20026;-71
2023/07/26 12:23:24;;;;;;;3.67;1.90;;;19.10;99.90;;;;;;10057855;28;20100;-67
2023/07/26 12:28:15;;;;;;;2.90;2.00;;;19.20;99.90;;;;;;10059332;28;20310;-67
2023/07/26 12:33:12;;;;;;;3.45;1.58;;;19.30;99.90;;;;;;10061640;28;20522;-71
2023/07/26 12:38:17;;;;;;;2.45;1.50;;;19.40;99.90;;;;;;10061194;28;20018;-71
2023/07/26 12:43:28;;;;;;;2.03;1.38;;;19.40;99.90;;;;;;10060823;28;20033;-71
2023/07/26 12:48:19;;;;;;;1.85;1.38;;;19.40;99.90;;;;;;10059736;28;20403;-68
2023/07/26 12:53:10;;;;;;;2.40;1.77;;;19.30;99.90;;;;;;10064346;28;20053;-68
2023/07/26 12:58:00;;;;;;;3.35;1.85;;;19.30;99.90;;;;;;10059574;28;20026;-69
2023/07/26 13:02:51;;;;;;;4.00;1.80;;;19.30;99.90;;;;;;10063217;28;20038;-68
2023/07/26 13:07:42;;;;;;;2.08;1.52;;;19.30;99.90;;;;;;10058795;28;20028;-67
2023/07/26 13:12:32;;;;;;;5.00;1.65;;;19.20;99.90;;;;;;10069463;28;20380;-68
2023/07/26 13:17:23;;;;;;;2.28;1.52;;;19.30;99.90;;;;;;10055920;28;20175;-68
2023/07/26 13:22:13;;;;;;;2.53;1.17;;;19.40;99.90;;;;;;10059135;28;20481;-68
2023/07/26 13:27:04;;;;;;;2.58;1.60;;;19.40;99.90;;;;;;10057312;28;20454;-68
2023/07/26 13:31:55;;;;;;;2.20;1.40;;;19.50;99.90;;;;;;10057448;28;20037;-69
2023/07/26 13:36:46;;;;;;;2.78;1.30;;;19.70;99.90;;;;;;10056651;28;20068;-71
2023/07/26 13:41:36;;;;;;;2.50;1.42;;;19.70;99.90;;;;;;10056702;28;20395;-72
2023/07/26 13:46:27;;;;;;;2.50;1.20;;;19.70;99.90;;;;;;10057351;28;20613;-71
2023/07/26 13:51:17;;;;;;;3.20;2.15;;;19.60;99.90;;;;;;10054440;28;20049;-70
2023/07/26 13:56:08;;;;;;;3.28;1.92;;;19.60;99.90;;;;;;10056383;28;20033;-70
2023/07/26 14:00:59;;;;;;;2.47;1.70;;;19.60;99.90;;;;;;10057804;28;20057;-69
2023/07/26 14:05:49;;;;;;;2.83;1.95;;;19.60;99.90;;;;;;10056691;28;20046;-71
2023/07/26 14:10:41;;;;;;;2.92;1.77;;;19.70;99.90;;;;;;10067218;28;20021;-71
2023/07/26 14:15:31;;;;;;;2.25;1.55;;;19.70;99.90;;;;;;10058767;28;20114;-71
2023/07/26 14:20:22;;;;;;;2.67;1.73;;;19.60;99.90;;;;;;10071015;28;20110;-70
2023/07/26 14:25:12;;;;;;;2.72;1.90;;;19.60;99.90;;;;;;10056132;28;20033;-69
2023/07/26 14:30:03;;;;;;;2.13;1.60;;;19.70;99.90;;;;;;10055626;28;20030;-68
2023/07/26 14:34:54;;;;;;;2.75;2.15;;;19.90;99.90;;;;;;10063261;28;20133;-68
2023/07/26 14:39:44;;;;;;;3.67;1.98;;;20.20;99.90;;;;;;10063777;28;20159;-69
2023/07/26 14:44:35;;;;;;;2.45;2.00;;;20.40;99.90;;;;;;10062886;28;20044;-70
2023/07/26 14:49:26;;;;;;;4.07;1.83;;;21.00;99.90;;;;;;10075352;28;20030;-72
2023/07/26 14:54:17;;;;;;;4.28;2.25;;;21.50;99.90;;;;;;10060627;28;20578;-70
2023/07/26 14:59:07;;;;;;;2.40;1.65;;;21.80;99.90;;;;;;10062585;28;20129;-71
2023/07/26 15:04:01;;;;;;;2.25;1.70;;;22.20;99.90;;;;;;10067110;28;20108;-72
2023/07/26 15:08:52;;;;;;;4.00;1.53;;;22.40;99.90;;;;;;10064383;28;20057;-71
2023/07/26 15:13:43;;;;;;;2.20;1.80;;;21.90;99.90;;;;;;10061677;28;20065;-72
2023/07/26 15:18:35;;;;;;;2.75;1.70;;;22.30;99.90;;;;;;10062123;28;20492;-70
2023/07/26 15:23:25;;;;;;;3.53;2.22;;;22.80;99.90;;;;;;10062085;28;20038;-69
2023/07/26 15:28:16;;;;;;;2.63;1.75;;;23.10;99.90;;;;;;10066290;28;20025;-71
2023/07/26 15:33:07;;;;;;;3.47;1.80;;;23.20;99.90;;;;;;10061127;28;20037;-71
2023/07/26 15:37:58;;;;;;;1.90;1.67;;;23.70;99.90;;;;;;10061611;28;20026;-71
2023/07/26 15:42:49;;;;;;;2.05;1.45;;;24.30;99.90;;;;;;10060033;28;20033;-70
2023/07/26 15:47:39;;;;;;;4.60;2.60;;;25.00;99.90;;;;;;10076493;28;20456;-70
2023/07/26 15:52:30;;;;;;;2.28;1.83;;;25.40;99.90;;;;;;10064301;28;20049;-73
2023/07/26 15:57:21;;;;;;;2.38;2.10;;;25.70;99.90;;;;;;10061323;28;20029;-73
2023/07/26 16:02:12;;;;;;;2.83;1.40;;;25.70;99.90;;;;;;10062017;28;20443;-72
2023/07/26 16:07:03;;;;;;;2.15;1.60;;;25.90;99.90;;;;;;10058658;28;20219;-72
2023/07/26 16:11:53;;;;;;;1.92;1.30;;;26.20;99.90;;;;;;10055818;28;20252;-71
2023/07/26 16:16:44;;;;;;;3.30;1.48;;;26.20;99.90;;;;;;10064055;28;20045;-71
2023/07/26 16:21:34;;;;;;;2.65;1.45;;;26.20;99.90;;;;;;10059833;28;20510;-69
2023/07/26 16:26:25;;;;;;;2.75;1.55;;;26.30;99.90;;;;;;10066675;28;20431;-71
2023/07/26 16:31:16;;;;;;;4.22;1.60;;;26.30;99.90;;;;;;10059152;28;20082;-70
2023/07/26 16:36:06;;;;;;;1.80;1.40;;;26.50;99.90;;;;;;10062110;28;20120;-70
2023/07/26 16:40:57;;;;;;;4.10;1.83;;;26.50;99.90;;;;;;10063411;28;20041;-70
2023/07/26 16:45:48;;;;;;;2.75;1.67;;;26.60;99.90;;;;;;10056476;28;20151;-70
2023/07/26 16:50:39;;;;;;;3.00;1.40;;;26.60;99.90;;;;;;10054507;28;20488;-70
2023/07/26 16:55:29;;;;;;;1.70;1.30;;;26.50;99.90;;;;;;10054788;28;20076;-70
2023/07/26 17:00:21;;;;;;;1.67;1.20;;;26.60;99.90;;;;;;10062519;28;20563;-71
2023/07/26 17:05:11;;;;;;;2.28;1.70;;;26.70;99.90;;;;;;10058584;28;20094;-71
2023/07/26 17:10:02;;;;;;;3.90;1.85;;;26.60;99.90;;;;;;10069928;28;20088;-71
2023/07/26 17:14:53;;;;;;;3.00;1.70;;;26.70;99.90;;;;;;10058735;28;20045;-72
2023/07/26 17:19:43;;;;;;;2.25;1.63;;;26.80;99.90;;;;;;10058816;28;20033;-72
2023/07/26 17:24:34;;;;;;;3.65;1.63;;;26.80;99.90;;;;;;10058843;28;20108;-71
2023/07/26 17:29:24;;;;;;;2.92;1.48;;;26.80;99.90;;;;;;10058156;28;20025;-70
2023/07/26 17:34:15;;;;;;;3.00;1.40;;;26.80;99.90;;;;;;10058902;28;20093;-71
2023/07/26 17:39:08;;;;;;;3.08;1.45;;;25.90;99.90;;;;;;10059649;28;20075;-70
2023/07/26 17:43:58;;;;;;;5.40;1.85;;;25.60;99.90;;;;;;10057256;28;20033;-70
2023/07/26 17:48:49;;;;;;;1.83;1.67;;;25.50;99.90;;;;;;10063551;28;20025;-71
2023/07/26 17:53:40;;;;;;;2.22;1.50;;;25.70;99.90;;;;;;10058357;28;20042;-71
2023/07/26 17:58:31;;;;;;;3.10;1.55;;;25.50;99.90;;;;;;10057314;28;20033;-70
2023/07/26 18:03:21;;;;;;;2.78;1.60;;;25.20;99.90;;;;;;10055117;28;20421;-70
2023/07/26 18:08:12;;;;;;;3.97;1.90;;;24.90;99.90;;;;;;10058810;28;20083;-72
2023/07/26 18:13:04;;;;;;;1.70;1.23;;;24.60;99.90;;;;;;10066221;28;20053;-71
2023/07/26 18:17:54;;;;;;;3.25;1.63;;;24.50;99.90;;;;;;10056814;28;20025;-71
2023/07/26 18:22:45;;;;;;;3.83;2.28;;;24.50;99.90;;;;;;10071898;28;20030;-72
2023/07/26 18:27:36;;;;;;;2.75;1.50;;;24.40;99.90;;;;;;10055180;28;20140;-72
2023/07/26 18:32:26;;;;;;;2.35;1.40;;;24.30;99.90;;;;;;10056682;28;20036;-72
2023/07/26 18:37:17;;;;;;;2.63;1.55;;;24.20;99.90;;;;;;10057568;28;20128;-71
2023/07/26 18:42:08;;;;;;;1.92;1.50;;;24.20;99.90;;;;;;10062457;28;20100;-71
2023/07/26 18:46:58;;;;;;;2.13;1.30;;;24.00;99.90;;;;;;10065724;28;20030;-71
2023/07/26 18:51:49;;;;;;;3.55;1.60;;;23.90;99.90;;;;;;10056665;28;20053;-72
2023/07/26 18:56:40;;;;;;;3.25;1.90;;;23.90;99.90;;;;;;10056612;28;20115;-71
2023/07/26 19:01:31;;;;;;;3.60;1.80;;;23.90;99.90;;;;;;10057251;28;20033;-71
2023/07/26 19:06:21;;;;;;;4.45;1.70;;;23.80;99.90;;;;;;10055597;28;20108;-71
2023/07/26 19:11:12;;;;;;;2.10;1.42;;;23.70;99.90;;;;;;10067369;28;20096;-72
2023/07/26 19:16:03;;;;;;;2.30;1.50;;;23.60;99.90;;;;;;10055929;28;20410;-71
2023/07/26 19:21:00;;;;;;;4.40;1.92;;;23.60;99.90;;;;;;10059659;28;20055;-71
2023/07/26 19:25:50;;;;;;;2.75;1.70;;;23.60;99.90;;;;;;10059187;28;20034;-71
2023/07/26 19:30:41;;;;;;;3.13;1.60;;;23.60;99.90;;;;;;10062079;28;20029;-71
2023/07/26 19:35:31;;;;;;;2.30;1.42;;;23.50;99.90;;;;;;10061868;28;20048;-71
2023/07/26 19:40:22;;;;;;;10.88;4.95;;;23.50;99.90;;;;;;10057056;28;20022;-70
2023/07/26 19:45:13;;;;;;;3.70;2.28;;;23.40;99.90;;;;;;10057406;28;20073;-71
2023/07/26 19:50:05;;;;;;;2.20;1.50;;;23.40;99.90;;;;;;10061349;28;20033;-71
2023/07/26 19:54:56;;;;;;;3.08;1.98;;;23.30;99.90;;;;;;10062544;28;20049;-72
2023/07/26 19:59:46;;;;;;;3.95;2.83;;;23.40;99.90;;;;;;10062231;28;20026;-73
2023/07/26 20:04:37;;;;;;;3.70;1.80;;;23.50;99.90;;;;;;10061176;28;20030;-73
2023/07/26 20:09:28;;;;;;;2.90;2.33;;;23.40;99.90;;;;;;10062080;28;20391;-73
2023/07/26 20:14:18;;;;;;;3.58;2.22;;;23.40;99.90;;;;;;10060611;28;20122;-73
2023/07/26 20:19:10;;;;;;;2.63;1.38;;;23.40;99.90;;;;;;10061551;28;20026;-72
2023/07/26 20:24:01;;;;;;;2.28;1.52;;;23.40;99.90;;;;;;10061594;28;20040;-72
2023/07/26 20:28:52;;;;;;;2.33;1.30;;;23.20;99.90;;;;;;10062719;28;20053;-72
2023/07/26 20:33:42;;;;;;;2.53;1.73;;;23.20;99.90;;;;;;10059253;28;20204;-72
2023/07/26 20:38:33;;;;;;;3.85;2.00;;;23.10;99.90;;;;;;10061221;28;20487;-72
2023/07/26 20:43:24;;;;;;;2.85;1.23;;;23.00;99.90;;;;;;10059114;28;20104;-73
2023/07/26 20:48:15;;;;;;;2.97;1.33;;;23.00;99.90;;;;;;10059201;28;20029;-71
2023/07/26 20:53:05;;;;;;;4.85;2.80;;;23.00;99.90;;;;;;10067240;28;20053;-72
2023/07/26 20:57:56;;;;;;;2.63;1.30;;;22.80;99.90;;;;;;10058883;28;20051;-72
2023/07/26 21:02:47;;;;;;;2.42;1.50;;;22.80;99.90;;;;;;10059184;28;20125;-72
2023/07/26 21:07:37;;;;;;;2.55;1.63;;;22.80;99.90;;;;;;10059050;28;20037;-71
2023/07/26 21:12:28;;;;;;;2.47;1.40;;;22.70;99.90;;;;;;10070366;28;20047;-71
2023/07/26 21:17:19;;;;;;;2.60;1.65;;;22.70;99.90;;;;;;10060817;28;20048;-72
2023/07/26 21:22:12;;;;;;;2.75;1.38;;;22.70;99.90;;;;;;10060018;28;20034;-71
2023/07/26 21:27:03;;;;;;;2.60;1.63;;;22.50;99.90;;;;;;10057490;28;20033;-73
2023/07/26 21:31:54;;;;;;;1.90;1.00;;;22.50;99.90;;;;;;10061967;28;20033;-71
2023/07/26 21:36:45;;;;;;;2.10;1.85;;;22.40;99.90;;;;;;10061037;28;20392;-72
2023/07/26 21:41:35;;;;;;;3.10;1.40;;;22.30;99.90;;;;;;10055241;28;20025;-71
2023/07/26 21:46:26;;;;;;;2.30;1.20;;;22.30;99.90;;;;;;10057952;28;20509;-73
2023/07/26 21:51:17;;;;;;;2.35;1.60;;;22.20;99.90;;;;;;10056631;28;20133;-71
2023/07/26 21:56:12;;;;;;;6.80;2.58;;;22.20;99.90;;;;;;10058848;28;20045;-73
2023/07/26 22:01:04;;;;;;;2.80;1.35;;;22.20;99.90;;;;;;10059188;28;20053;-73
2023/07/26 22:05:55;;;;;;;1.98;1.27;;;22.00;99.90;;;;;;10056508;28;20566;-73
2023/07/26 22:10:45;;;;;;;6.50;3.20;;;22.10;99.90;;;;;;10060813;28;20025;-73
2023/07/26 22:15:36;;;;;;;4.15;2.67;;;22.00;99.90;;;;;;10056267;28;20037;-73
2023/07/26 22:20:27;;;;;;;4.55;2.10;;;21.90;99.90;;;;;;10055687;28;20036;-73
2023/07/26 22:25:18;;;;;;;2.80;1.08;;;21.90;99.90;;;;;;10056697;28;20055;-72
2023/07/26 22:30:09;;;;;;;2.28;1.60;;;21.90;99.90;;;;;;10062295;28;20480;-73
2023/07/26 22:34:59;;;;;;;3.25;1.52;;;21.80;99.90;;;;;;10057216;28;20175;-74
2023/07/26 22:39:50;;;;;;;2.03;1.30;;;21.70;99.90;;;;;;10061845;28;20450;-73
2023/07/26 22:44:41;;;;;;;2.60;1.13;;;21.70;99.90;;;;;;10056702;28;20535;-72
2023/07/26 22:49:31;;;;;;;1.50;1.10;;;21.60;99.90;;;;;;10056324;28;20108;-73
2023/07/26 22:54:22;;;;;;;1.30;1.20;;;21.60;99.90;;;;;;10061996;28;20128;-73
2023/07/26 22:59:12;;;;;;;1.80;1.13;;;21.60;99.90;;;;;;10072095;28;20041;-73
2023/07/26 23:04:03;;;;;;;3.80;2.00;;;21.50;99.90;;;;;;10059533;28;20028;-72
2023/07/26 23:08:54;;;;;;;3.38;1.55;;;21.50;99.90;;;;;;10074888;28;20021;-72
2023/07/26 23:13:44;;;;;;;2.45;1.10;;;21.50;99.90;;;;;;10067105;28;20267;-76
2023/07/26 23:18:35;;;;;;;1.98;1.48;;;21.40;99.90;;;;;;10063007;28;20505;-71
2023/07/26 23:23:26;;;;;;;2.47;1.58;;;21.30;99.90;;;;;;10062689;28;20034;-71
2023/07/26 23:28:17;;;;;;;2.97;1.33;;;21.40;99.90;;;;;;10063035;28;20499;-72
2023/07/26 23:33:10;;;;;;;1.75;1.20;;;21.40;99.90;;;;;;10077619;28;20048;-71
2023/07/26 23:38:00;;;;;;;4.80;1.67;;;21.40;99.90;;;;;;10062582;28;20029;-72
2023/07/26 23:42:51;;;;;;;1.42;1.20;;;21.40;99.90;;;;;;10061886;28;20034;-71
2023/07/26 23:48:23;;;;;;;1.42;1.23;;;21.30;99.90;;;;;;10062212;28;20112;-72
2023/07/26 23:53:13;;;;;;;2.42;1.15;;;21.30;99.90;;;;;;10050717;28;20060;-72
2023/07/26 23:58:05;;;;;;;1.50;1.00;;;21.30;99.90;;;;;;10059706;28;20029;-72
